Terminal Aerodrome Forecast
Issued by NWS Topeka, KS

Home | Current Version | Previous Version | Text Only | Print | Product List | Glossary Off
Versions: 1 2 3 4 5 6 7 8 9 10 11 12 13 14 15 16 17 18 19

000
FTUS43 KTOP 170500
TAFTOP
TAF
KTOP 170529Z 1706/1806 34003KT P6SM BKN018
     FM170800 35005KT P6SM SCT020 SCT200
     FM171500 08004KT P6SM BKN150
     FM180300 11005KT 4SM BR VCSH BKN050=

USA.gov is the U.S. government's official web portal to all federal, state and local government web resources and services.